createdAt,value
2018-09-26T00:00:50.642Z,69.32
2018-09-26T00:03:35.991Z,69.60
2018-09-26T00:06:13.289Z,69.49
2018-09-26T00:08:51.397Z,69.25
2018-09-26T00:11:29.870Z,69.33
2018-09-26T00:14:09.829Z,69.75
2018-09-26T00:16:46.593Z,69.83
2018-09-26T00:19:24.774Z,69.65
2018-09-26T00:22:01.057Z,69.37
2018-09-26T00:24:38.330Z,69.58
2018-09-26T00:27:15.148Z,69.85
2018-09-26T00:29:44.711Z,69.86
2018-09-26T00:32:14.278Z,69.64
2018-09-26T00:34:43.971Z,69.71
2018-09-26T00:37:13.523Z,69.77
2018-09-26T00:39:43.130Z,69.93
2018-09-26T00:42:12.706Z,69.80
2018-09-26T00:44:42.941Z,70.17
2018-09-26T00:47:12.566Z,70.10
2018-09-26T00:49:42.182Z,69.90
2018-09-26T00:52:12.809Z,70.25
2018-09-26T00:54:42.475Z,70.22
2018-09-26T00:57:12.089Z,70.31
2018-09-26T00:59:42.762Z,70.41
2018-09-26T01:02:12.325Z,70.27
2018-09-26T01:04:41.942Z,70.38
2018-09-26T01:07:11.585Z,70.31
2018-09-26T01:09:41.123Z,70.62
2018-09-26T01:12:10.784Z,70.18
2018-09-26T01:14:40.405Z,70.39
2018-09-26T01:17:10.114Z,70.11
2018-09-26T01:19:39.699Z,70.30
2018-09-26T01:22:09.413Z,69.95
2018-09-26T01:24:39.066Z,70.44
2018-09-26T01:27:09.214Z,70.03
2018-09-26T01:29:39.952Z,70.15
2018-09-26T01:32:09.517Z,70.06
2018-09-26T01:34:39.123Z,69.93
2018-09-26T01:37:08.762Z,69.99
2018-09-26T01:39:38.341Z,70.05
2018-09-26T01:42:07.990Z,69.96
2018-09-26T01:44:37.605Z,70.17
2018-09-26T01:47:07.422Z,69.88
2018-09-26T01:49:37.016Z,70.08
2018-09-26T01:52:06.655Z,69.62
2018-09-26T01:54:36.601Z,69.93
2018-09-26T01:57:06.920Z,70.02
2018-09-26T01:59:36.548Z,70.16
2018-09-26T02:02:06.732Z,69.70
2018-09-26T02:04:36.496Z,69.62
2018-09-26T02:07:06.460Z,69.77
2018-09-26T02:09:44.424Z,69.91
2018-09-26T02:12:14.640Z,69.96
2018-09-26T02:14:44.241Z,69.57
2018-09-26T02:17:13.810Z,69.79
2018-09-26T02:19:43.404Z,69.95
2018-09-26T02:22:13.021Z,69.53
2018-09-26T02:24:42.593Z,69.56
2018-09-26T02:27:12.185Z,69.26
2018-09-26T02:29:41.893Z,69.53
2018-09-26T02:32:11.509Z,69.74
2018-09-26T02:34:41.091Z,69.54
2018-09-26T02:37:10.662Z,69.21
2018-09-26T02:39:40.931Z,69.55
2018-09-26T02:42:10.608Z,69.96
2018-09-26T02:44:40.158Z,69.76
2018-09-26T02:47:11.542Z,69.82
2018-09-26T02:49:41.148Z,69.61
2018-09-26T02:52:10.717Z,69.84
2018-09-26T02:54:40.268Z,70.09
2018-09-26T02:57:09.930Z,69.16
2018-09-26T02:59:39.507Z,69.80
2018-09-26T03:02:09.168Z,70.06
2018-09-26T03:04:38.712Z,70.26
2018-09-26T03:07:08.597Z,70.17
2018-09-26T03:09:38.211Z,70.10
2018-09-26T03:12:07.777Z,70.25
2018-09-26T03:14:37.665Z,69.85
2018-09-26T03:17:07.502Z,69.87
2018-09-26T03:19:37.359Z,69.59
2018-09-26T03:22:06.955Z,70.19
2018-09-26T03:24:36.517Z,69.66
2018-09-26T03:27:06.281Z,69.74
2018-09-26T03:29:35.847Z,69.80
2018-09-26T03:32:06.262Z,69.60
2018-09-26T03:34:35.954Z,69.85
2018-09-26T03:37:06.778Z,69.93
2018-09-26T03:39:36.422Z,69.91
2018-09-26T03:42:06.669Z,69.84
2018-09-26T03:44:36.296Z,69.89
2018-09-26T03:47:06.613Z,69.87
2018-09-26T03:49:36.229Z,69.72
2018-09-26T03:52:06.840Z,69.86
2018-09-26T03:54:36.915Z,69.87
2018-09-26T03:57:06.736Z,69.88
2018-09-26T03:59:36.338Z,69.67
2018-09-26T04:02:07.156Z,69.82
2018-09-26T04:04:36.733Z,69.81
2018-09-26T04:07:06.737Z,69.96
2018-09-26T04:09:36.288Z,69.83
2018-09-26T04:12:06.637Z,69.75
2018-09-26T04:14:36.198Z,69.71
2018-09-26T04:17:06.303Z,69.58
2018-09-26T04:19:36.371Z,69.32
2018-09-26T04:22:06.493Z,69.90
2018-09-26T04:24:36.150Z,69.52
2018-09-26T04:27:06.740Z,69.23
2018-09-26T04:29:37.475Z,68.93
2018-09-26T04:32:07.466Z,69.12
2018-09-26T04:34:37.042Z,69.19
2018-09-26T04:37:06.909Z,69.07
2018-09-26T04:39:36.840Z,68.57
2018-09-26T04:42:06.778Z,68.55
2018-09-26T04:44:36.390Z,68.82
2018-09-26T04:47:06.351Z,68.51
2018-09-26T04:49:36.080Z,68.16
2018-09-26T04:52:06.625Z,68.32
2018-09-26T04:54:36.399Z,68.18
2018-09-26T04:57:06.759Z,68.43
2018-09-26T04:59:36.497Z,67.99
2018-09-26T05:02:06.649Z,68.22
2018-09-26T05:04:36.317Z,68.02
2018-09-26T05:07:07.222Z,68.31
2018-09-26T05:09:37.217Z,67.91
2018-09-26T05:12:07.098Z,67.98
2018-09-26T05:14:36.814Z,67.76
2018-09-26T05:17:06.475Z,68.04
2018-09-26T05:19:36.163Z,68.06
2018-09-26T05:22:06.621Z,67.83
2018-09-26T05:24:36.563Z,67.85
2018-09-26T05:27:06.670Z,67.85
2018-09-26T05:29:36.318Z,68.02
2018-09-26T05:32:07.065Z,68.04
2018-09-26T05:34:36.944Z,67.57
2018-09-26T05:37:06.630Z,67.85
2018-09-26T05:39:36.304Z,67.98
2018-09-26T05:42:06.353Z,67.84
2018-09-26T05:44:36.077Z,67.84
2018-09-26T05:47:13.275Z,67.88
2018-09-26T05:49:48.751Z,67.97
2018-09-26T05:52:18.392Z,68.04
2018-09-26T05:54:47.962Z,68.12
2018-09-26T05:57:17.546Z,68.13
2018-09-26T05:59:47.266Z,67.61
2018-09-26T06:02:16.941Z,68.18
2018-09-26T06:04:46.582Z,68.08
2018-09-26T06:07:16.306Z,68.15
2018-09-26T06:09:46.049Z,67.62
2018-09-26T06:12:15.760Z,67.67
2018-09-26T06:14:50.584Z,67.64
2018-09-26T06:17:28.695Z,67.74
2018-09-26T06:19:58.476Z,67.79
2018-09-26T06:22:28.240Z,67.75
2018-09-26T06:25:03.169Z,67.59
2018-09-26T06:27:32.918Z,67.47
2018-09-26T06:30:02.850Z,67.54
2018-09-26T06:32:32.716Z,67.07
2018-09-26T06:35:02.947Z,67.34
2018-09-26T06:37:35.160Z,66.99
2018-09-26T06:40:22.099Z,67.49
2018-09-26T06:42:51.833Z,67.04
2018-09-26T06:45:21.530Z,67.10
2018-09-26T06:47:51.220Z,66.88
2018-09-26T06:50:20.881Z,66.69
2018-09-26T06:52:50.606Z,67.04
2018-09-26T06:55:21.841Z,66.66
2018-09-26T06:57:53.859Z,66.40
2018-09-26T07:00:23.570Z,66.20
2018-09-26T07:02:53.178Z,66.14
2018-09-26T07:05:22.917Z,66.26
2018-09-26T07:07:52.569Z,65.79
2018-09-26T07:10:22.231Z,65.48
2018-09-26T07:12:51.918Z,65.78
2018-09-26T07:15:21.599Z,65.63
2018-09-26T07:17:51.460Z,64.65
2018-09-26T07:20:22.012Z,65.20
2018-09-26T07:22:52.103Z,64.61
2018-09-26T07:25:21.911Z,64.65
2018-09-26T07:27:51.561Z,64.55
2018-09-26T07:30:21.276Z,64.29
2018-09-26T07:32:50.963Z,64.33
2018-09-26T07:35:20.830Z,63.71
2018-09-26T07:37:50.445Z,64.11
2018-09-26T07:40:20.173Z,64.10
2018-09-26T07:42:49.957Z,63.80
2018-09-26T07:45:19.581Z,63.05
2018-09-26T07:47:49.358Z,63.84
2018-09-26T07:50:20.178Z,63.20
2018-09-26T07:52:54.081Z,63.40
2018-09-26T07:55:23.958Z,63.66
2018-09-26T07:57:53.612Z,63.47
2018-09-26T08:00:23.255Z,62.88
2018-09-26T08:02:52.903Z,62.32
2018-09-26T08:05:22.672Z,62.79
2018-09-26T08:07:52.411Z,62.79
2018-09-26T08:10:22.170Z,62.26
2018-09-26T08:12:51.981Z,62.29
2018-09-26T08:15:22.836Z,61.97
2018-09-26T08:17:52.538Z,61.97
2018-09-26T08:20:22.282Z,61.79
2018-09-26T08:22:52.135Z,61.55
2018-09-26T08:25:21.937Z,60.90
2018-09-26T08:27:51.529Z,60.97
2018-09-26T08:30:21.290Z,61.25
2018-09-26T08:32:51.086Z,60.43
2018-09-26T08:35:22.280Z,60.65
2018-09-26T08:37:51.967Z,59.86
2018-09-26T08:40:21.762Z,59.45
2018-09-26T08:42:52.217Z,59.02
2018-09-26T08:45:22.357Z,58.99
2018-09-26T08:47:51.947Z,59.37
2018-09-26T08:50:21.644Z,58.68
2018-09-26T08:52:51.344Z,58.87
2018-09-26T08:55:21.181Z,58.96
2018-09-26T08:57:50.880Z,58.58
2018-09-26T09:00:25.539Z,57.84
2018-09-26T09:02:55.986Z,57.99
2018-09-26T09:05:26.445Z,57.96
2018-09-26T09:08:00.201Z,57.60
2018-09-26T09:10:30.187Z,57.61
2018-09-26T09:13:11.087Z,57.96
2018-09-26T09:15:56.784Z,57.49
2018-09-26T09:18:26.672Z,57.56
2018-09-26T09:20:56.312Z,56.81
2018-09-26T09:23:31.214Z,56.69
2018-09-26T09:26:09.567Z,56.91
2018-09-26T09:28:48.227Z,56.99
2018-09-26T09:31:17.941Z,57.16
2018-09-26T09:33:49.121Z,56.45
2018-09-26T09:36:18.833Z,57.61
2018-09-26T09:38:48.561Z,57.45
2018-09-26T09:41:20.482Z,57.26
2018-09-26T09:44:16.063Z,57.31
2018-09-26T09:46:46.237Z,57.93
2018-09-26T09:49:15.892Z,57.88
2018-09-26T09:51:45.612Z,57.83
2018-09-26T09:54:15.355Z,56.96
2018-09-26T09:56:45.028Z,57.33
2018-09-26T09:59:18.560Z,57.68
2018-09-26T10:01:48.301Z,56.75
2018-09-26T10:04:18.000Z,56.63
2018-09-26T10:06:47.709Z,56.97
2018-09-26T10:09:17.315Z,57.47
2018-09-26T10:11:46.929Z,56.78
2018-09-26T10:14:16.683Z,57.22
2018-09-26T10:16:46.441Z,56.24
2018-09-26T10:19:16.080Z,56.47
2018-09-26T10:21:45.730Z,56.43
2018-09-26T10:24:15.631Z,56.32
2018-09-26T10:26:53.049Z,56.71
2018-09-26T10:29:23.217Z,56.58
2018-09-26T10:31:52.975Z,55.91
2018-09-26T10:34:22.918Z,56.36
2018-09-26T10:36:52.597Z,56.82
2018-09-26T10:39:22.330Z,55.82
2018-09-26T10:41:51.996Z,55.71
2018-09-26T10:44:21.706Z,55.39
2018-09-26T10:46:51.347Z,55.34
2018-09-26T10:49:21.978Z,55.08
2018-09-26T10:51:53.041Z,55.30
2018-09-26T10:54:22.781Z,54.53
2018-09-26T10:56:52.534Z,54.83
2018-09-26T10:59:22.134Z,53.90
2018-09-26T11:01:51.921Z,54.28
2018-09-26T11:04:21.620Z,53.55
2018-09-26T11:06:51.387Z,53.88
2018-09-26T11:09:21.026Z,53.67
2018-09-26T11:11:50.671Z,53.75
2018-09-26T11:14:20.738Z,54.18
2018-09-26T11:16:53.328Z,53.00
2018-09-26T11:19:23.300Z,54.15
2018-09-26T11:21:53.241Z,53.34
2018-09-26T11:24:23.040Z,53.78
2018-09-26T11:26:52.649Z,53.03
2018-09-26T11:29:22.301Z,53.49
2018-09-26T11:31:51.974Z,52.96
2018-09-26T11:34:21.616Z,53.22
2018-09-26T11:36:51.165Z,52.57
2018-09-26T11:39:20.807Z,51.38
2018-09-26T11:41:50.630Z,50.62
2018-09-26T11:44:20.564Z,50.73
2018-09-26T11:46:50.181Z,49.82
2018-09-26T11:49:19.802Z,49.60
2018-09-26T11:51:49.575Z,49.46
2018-09-26T11:54:19.238Z,49.72
2018-09-26T11:56:48.966Z,49.85
2018-09-26T11:59:18.573Z,49.75
2018-09-26T12:04:17.537Z,49.99
2018-09-26T12:06:47.108Z,49.71
2018-09-26T12:09:16.754Z,49.72
2018-09-26T12:11:46.775Z,48.60
2018-09-26T12:14:16.878Z,47.69
2018-09-26T12:16:47.180Z,47.55
2018-09-26T12:19:17.093Z,47.32
2018-09-26T12:21:46.687Z,47.30
2018-09-26T12:24:16.291Z,47.22
2018-09-26T12:26:45.952Z,46.37
2018-09-26T12:29:15.768Z,45.59
2018-09-26T12:31:45.419Z,45.56
2018-09-26T12:34:15.182Z,44.35
2018-09-26T12:36:44.734Z,45.36
2018-09-26T12:39:14.415Z,45.21
2018-09-26T12:41:47.077Z,44.06
2018-09-26T12:44:16.777Z,43.87
2018-09-26T12:46:46.532Z,44.54
2018-09-26T12:49:16.175Z,43.84
2018-09-26T12:51:45.849Z,41.70
2018-09-26T12:54:15.466Z,41.56
2018-09-26T12:56:45.130Z,40.48
2018-09-26T12:59:15.108Z,40.52
2018-09-26T13:01:44.934Z,40.00
2018-09-26T13:04:14.659Z,39.74
2018-09-26T13:06:44.323Z,40.23
2018-09-26T13:09:14.084Z,39.26
2018-09-26T13:11:43.705Z,39.11
2018-09-26T13:14:13.453Z,39.35
2018-09-26T13:16:43.238Z,39.75
2018-09-26T13:19:12.860Z,40.14
2018-09-26T13:21:42.626Z,38.53
2018-09-26T13:24:12.345Z,38.71
2018-09-26T13:26:41.887Z,37.83
2018-09-26T13:29:11.485Z,38.23
2018-09-26T13:31:41.088Z,37.83
2018-09-26T13:34:10.719Z,37.06
2018-09-26T13:36:41.803Z,35.64
2018-09-26T13:39:11.520Z,36.76
2018-09-26T13:41:41.242Z,36.43
2018-09-26T13:44:11.019Z,36.26
2018-09-26T13:46:40.692Z,36.38
2018-09-26T13:49:10.230Z,35.93
2018-09-26T13:51:39.994Z,35.35
2018-09-26T13:54:09.711Z,36.29
2018-09-26T13:56:39.382Z,37.85
2018-09-26T13:59:09.039Z,39.06
2018-09-26T14:01:39.049Z,38.19
2018-09-26T14:04:09.314Z,38.00
2018-09-26T14:06:39.117Z,37.56
2018-09-26T14:09:08.905Z,37.47
2018-09-26T14:11:38.555Z,38.19
2018-09-26T14:14:08.307Z,39.06
2018-09-26T14:16:37.913Z,38.27
2018-09-26T14:19:07.545Z,37.35
2018-09-26T14:21:39.395Z,37.12
2018-09-26T14:24:09.099Z,38.06
2018-09-26T14:26:39.381Z,37.29
2018-09-26T14:29:12.373Z,37.60
2018-09-26T14:31:42.107Z,37.83
2018-09-26T14:34:12.064Z,37.75
2018-09-26T14:36:41.824Z,37.89
2018-09-26T14:39:12.141Z,36.86
2018-09-26T14:41:41.784Z,36.46
2018-09-26T14:44:11.463Z,36.20
2018-09-26T14:46:41.263Z,35.93
2018-09-26T14:49:11.191Z,35.97
2018-09-26T14:51:41.383Z,36.01
2018-09-26T14:54:11.063Z,35.24
2018-09-26T14:56:41.007Z,34.62
2018-09-26T14:59:10.686Z,35.53
2018-09-26T15:01:40.457Z,35.20
2018-09-26T15:04:10.458Z,36.43
2018-09-26T15:06:40.133Z,35.90
2018-09-26T15:09:09.921Z,36.74
2018-09-26T15:11:40.894Z,37.40
2018-09-26T15:14:10.699Z,37.97
2018-09-26T15:16:40.576Z,39.40
2018-09-26T15:19:10.669Z,40.63
2018-09-26T15:21:41.789Z,40.65
2018-09-26T15:24:11.687Z,41.00
2018-09-26T15:26:41.513Z,42.13
2018-09-26T15:29:11.165Z,43.11
2018-09-26T15:31:40.983Z,42.89
2018-09-26T15:34:10.781Z,43.34
2018-09-26T15:36:41.152Z,43.38
2018-09-26T15:39:12.357Z,44.49
2018-09-26T15:41:42.332Z,43.81
2018-09-26T15:44:12.897Z,41.09
2018-09-26T15:46:42.633Z,40.64
2018-09-26T15:49:12.312Z,40.38
2018-09-26T15:51:42.103Z,40.71
2018-09-26T15:54:11.899Z,40.65
2018-09-26T15:56:41.645Z,41.59
2018-09-26T15:59:11.944Z,43.20
2018-09-26T16:01:41.666Z,44.05
2018-09-26T16:04:11.340Z,45.15
2018-09-26T16:06:42.228Z,45.14
2018-09-26T16:09:12.558Z,45.85
2018-09-26T16:11:42.370Z,45.72
2018-09-26T16:14:12.135Z,46.02
2018-09-26T16:16:42.403Z,46.28
2018-09-26T16:19:12.120Z,47.42
2018-09-26T16:21:43.144Z,46.85
2018-09-26T16:24:12.837Z,47.06
2018-09-26T16:26:42.515Z,47.73
2018-09-26T16:29:12.090Z,48.07
2018-09-26T16:31:41.744Z,48.26
2018-09-26T16:34:13.194Z,48.78
2018-09-26T16:36:42.862Z,48.76
2018-09-26T16:39:14.167Z,48.77
2018-09-26T16:41:44.753Z,48.92
2018-09-26T16:44:14.914Z,49.55
2018-09-26T16:46:44.549Z,49.57
2018-09-26T16:49:14.298Z,50.14
2018-09-26T16:51:44.031Z,49.41
2018-09-26T16:54:13.792Z,49.72
2018-09-26T16:56:43.508Z,50.29
2018-09-26T16:59:14.824Z,51.09
2018-09-26T17:01:44.477Z,50.54
2018-09-26T17:04:14.169Z,50.90
2018-09-26T17:06:43.862Z,50.79
2018-09-26T17:09:13.472Z,51.17
2018-09-26T17:11:43.139Z,51.24
2018-09-26T17:14:12.898Z,52.38
2018-09-26T17:16:42.626Z,52.30
2018-09-26T17:19:12.538Z,52.03
2018-09-26T17:21:42.168Z,52.80
2018-09-26T17:24:11.930Z,52.95
2018-09-26T17:26:42.940Z,53.24
2018-09-26T17:29:12.607Z,52.97
2018-09-26T17:31:42.278Z,53.26
2018-09-26T17:34:11.994Z,53.22
2018-09-26T17:36:41.597Z,53.04
2018-09-26T17:39:11.553Z,53.37
2018-09-26T17:41:41.202Z,53.61
2018-09-26T17:44:10.994Z,53.76
2018-09-26T17:46:40.767Z,54.58
2018-09-26T17:49:10.484Z,54.72
2018-09-26T17:51:40.186Z,55.00
2018-09-26T17:54:10.971Z,55.03
2018-09-26T17:56:40.611Z,55.36
2018-09-26T17:59:11.038Z,55.14
2018-09-26T18:01:40.798Z,55.57
2018-09-26T18:04:10.600Z,55.48
2018-09-26T18:06:40.155Z,56.20
2018-09-26T18:09:11.816Z,55.90
2018-09-26T18:11:41.538Z,56.10
2018-09-26T18:14:11.170Z,56.50
2018-09-26T18:16:40.850Z,56.49
2018-09-26T18:19:10.564Z,57.04
2018-09-26T18:21:44.456Z,56.89
2018-09-26T18:24:14.237Z,57.14
2018-09-26T18:26:43.891Z,57.15
2018-09-26T18:29:13.505Z,57.45
2018-09-26T18:31:43.185Z,57.60
2018-09-26T18:34:12.859Z,58.20
2018-09-26T18:36:42.587Z,57.82
2018-09-26T18:39:12.570Z,58.10
2018-09-26T18:41:42.251Z,58.17
2018-09-26T18:44:11.849Z,58.41
2018-09-26T18:46:41.513Z,59.18
2018-09-26T18:49:12.348Z,59.19
2018-09-26T18:51:43.055Z,59.07
2018-09-26T18:54:12.681Z,58.94
2018-09-26T18:56:42.306Z,59.07
2018-09-26T18:59:11.864Z,59.10
2018-09-26T19:01:41.457Z,59.79
2018-09-26T19:04:11.337Z,59.66
2018-09-26T19:06:41.105Z,59.37
2018-09-26T19:09:11.543Z,59.94
2018-09-26T19:11:41.279Z,59.57
2018-09-26T19:14:10.957Z,60.37
2018-09-26T19:16:40.591Z,59.81
2018-09-26T19:19:10.285Z,60.31
2018-09-26T19:21:41.740Z,60.49
2018-09-26T19:24:11.392Z,60.43
2018-09-26T19:26:41.047Z,60.29
2018-09-26T19:29:10.755Z,60.21
2018-09-26T19:31:40.599Z,60.67
2018-09-26T19:34:10.266Z,60.66
2018-09-26T19:36:39.939Z,60.34
2018-09-26T19:39:11.021Z,60.73
2018-09-26T19:41:40.828Z,60.91
2018-09-26T19:44:12.352Z,61.00
2018-09-26T19:46:43.059Z,61.25
2018-09-26T19:49:12.733Z,60.83
2018-09-26T19:51:42.450Z,61.21
2018-09-26T19:54:12.124Z,61.15
2018-09-26T19:56:41.799Z,61.01
2018-09-26T19:59:11.439Z,60.87
2018-09-26T20:01:41.057Z,61.15
2018-09-26T20:04:10.891Z,61.13
2018-09-26T20:06:40.583Z,61.14
2018-09-26T20:09:12.051Z,61.83
2018-09-26T20:11:42.179Z,61.74
2018-09-26T20:14:13.100Z,61.97
2018-09-26T20:16:42.800Z,61.76
2018-09-26T20:19:12.560Z,61.96
2018-09-26T20:21:42.201Z,61.48
2018-09-26T20:24:11.895Z,62.22
2018-09-26T20:26:41.634Z,61.85
2018-09-26T20:29:11.268Z,61.51
2018-09-26T20:31:40.875Z,61.88
2018-09-26T20:34:10.560Z,62.23
2018-09-26T20:36:40.229Z,62.58
2018-09-26T20:39:11.760Z,62.24
2018-09-26T20:41:41.550Z,62.77
2018-09-26T20:44:11.182Z,62.70
2018-09-26T20:46:40.779Z,62.84
2018-09-26T20:49:10.641Z,62.72
2018-09-26T20:51:41.360Z,62.95
2018-09-26T20:54:10.993Z,62.54
2018-09-26T20:56:40.629Z,62.62
2018-09-26T20:59:10.264Z,63.44
2018-09-26T21:01:39.817Z,63.70
2018-09-26T21:04:09.490Z,63.59
2018-09-26T21:06:39.151Z,64.17
2018-09-26T21:09:18.160Z,63.86
2018-09-26T21:11:47.864Z,64.41
2018-09-26T21:14:17.612Z,64.50
2018-09-26T21:16:47.329Z,64.87
2018-09-26T21:19:16.954Z,65.13
2018-09-26T21:21:46.617Z,65.50
2018-09-26T21:24:16.262Z,65.67
2018-09-26T21:26:45.889Z,66.41
2018-09-26T21:29:15.543Z,66.37
2018-09-26T21:31:45.427Z,66.42
2018-09-26T21:34:15.667Z,66.92
2018-09-26T21:36:45.362Z,67.17
2018-09-26T21:39:14.959Z,67.15
2018-09-26T21:41:44.838Z,67.19
2018-09-26T21:44:14.454Z,67.86
2018-09-26T21:46:44.111Z,67.56
2018-09-26T21:49:13.675Z,68.23
2018-09-26T21:51:43.230Z,67.91
2018-09-26T21:54:12.854Z,68.62
2018-09-26T21:56:42.477Z,68.31
2018-09-26T21:59:12.079Z,68.74
2018-09-26T22:01:41.746Z,68.79
2018-09-26T22:04:12.556Z,69.41
2018-09-26T22:06:42.131Z,69.04
2018-09-26T22:09:11.810Z,69.75
2018-09-26T22:11:44.696Z,69.84
2018-09-26T22:14:14.226Z,69.88
2018-09-26T22:16:43.805Z,70.26
2018-09-26T22:19:13.446Z,70.59
2018-09-26T22:21:43.074Z,70.60
2018-09-26T22:24:12.658Z,70.22
2018-09-26T22:26:42.239Z,71.08
2018-09-26T22:29:11.906Z,70.51
2018-09-26T22:31:41.577Z,71.30
2018-09-26T22:34:11.134Z,71.11
2018-09-26T22:36:40.725Z,71.74
2018-09-26T22:39:11.150Z,71.09
2018-09-26T22:41:40.844Z,71.29
2018-09-26T22:44:10.572Z,71.65
2018-09-26T22:46:40.140Z,71.67
2018-09-26T22:49:09.709Z,72.15
2018-09-26T22:51:39.353Z,72.22
2018-09-26T22:54:08.989Z,72.46
2018-09-26T22:56:38.731Z,72.44
2018-09-26T22:59:08.402Z,72.03
2018-09-26T23:01:37.948Z,72.74
2018-09-26T23:04:07.850Z,72.50
2018-09-26T23:06:46.046Z,72.07
2018-09-26T23:09:24.596Z,72.70
2018-09-26T23:12:02.134Z,72.52
2018-09-26T23:14:39.577Z,73.16
2018-09-26T23:17:16.626Z,73.55
2018-09-26T23:19:52.750Z,73.21
2018-09-26T23:22:30.806Z,73.75
2018-09-26T23:25:05.620Z,73.77
2018-09-26T23:27:42.835Z,73.34
2018-09-26T23:30:18.803Z,73.64
2018-09-26T23:32:55.553Z,73.75
2018-09-26T23:35:31.565Z,74.05
2018-09-26T23:38:08.428Z,73.51
2018-09-26T23:40:46.159Z,73.75
2018-09-26T23:43:24.079Z,74.03
2018-09-26T23:46:01.886Z,73.70
2018-09-26T23:48:38.950Z,74.29
2018-09-26T23:51:15.431Z,74.05
2018-09-26T23:53:53.233Z,74.35
2018-09-26T23:56:30.340Z,73.82
2018-09-26T23:59:07.785Z,73.88
